sensor_id;sensor_type;location;lat;lon;timestamp;temperature;humidity
23405;DHT22;11875;49.356;2.718;2022-12-18T00:01:42;-1.40;99.90
23405;DHT22;11875;49.356;2.718;2022-12-18T00:04:18;-1.40;99.90
23405;DHT22;11875;49.356;2.718;2022-12-18T00:06:45;-1.30;99.90
23405;DHT22;11875;49.356;2.718;2022-12-18T00:09:11;-1.30;99.90
23405;DHT22;11875;49.356;2.718;2022-12-18T00:11:36;-1.30;99.90
23405;DHT22;11875;49.356;2.718;2022-12-18T00:14:02;-1.30;99.90
23405;DHT22;11875;49.356;2.718;2022-12-18T00:16:29;-1.30;99.90
23405;DHT22;11875;49.356;2.718;2022-12-18T00:18:57;-1.30;99.90
23405;DHT22;11875;49.356;2.718;2022-12-18T00:21:22;-1.40;99.90
23405;DHT22;11875;49.356;2.718;2022-12-18T00:23:49;-1.50;99.90
23405;DHT22;11875;49.356;2.718;2022-12-18T00:26:19;-1.50;99.90
23405;DHT22;11875;49.356;2.718;2022-12-18T00:28:46;-1.70;99.90
23405;DHT22;11875;49.356;2.718;2022-12-18T00:31:14;-2.00;99.90
23405;DHT22;11875;49.356;2.718;2022-12-18T00:33:41;-2.10;99.90
23405;DHT22;11875;49.356;2.718;2022-12-18T00:36:15;-2.10;99.90
23405;DHT22;11875;49.356;2.718;2022-12-18T00:38:41;-1.90;99.90
23405;DHT22;11875;49.356;2.718;2022-12-18T00:41:09;-1.80;99.90
23405;DHT22;11875;49.356;2.718;2022-12-18T00:43:36;-1.60;99.90
23405;DHT22;11875;49.356;2.718;2022-12-18T00:46:02;-1.50;99.90
23405;DHT22;11875;49.356;2.718;2022-12-18T00:48:28;-1.50;99.90
23405;DHT22;11875;49.356;2.718;2022-12-18T00:50:54;-1.50;99.90
23405;DHT22;11875;49.356;2.718;2022-12-18T00:53:20;-1.50;99.90
23405;DHT22;11875;49.356;2.718;2022-12-18T00:55:47;-1.50;99.90
23405;DHT22;11875;49.356;2.718;2022-12-18T00:58:14;-1.50;99.90
23405;DHT22;11875;49.356;2.718;2022-12-18T01:00:41;-1.60;99.90
23405;DHT22;11875;49.356;2.718;2022-12-18T01:03:07;-1.60;99.90
23405;DHT22;11875;49.356;2.718;2022-12-18T01:05:33;-1.50;99.90
23405;DHT22;11875;49.356;2.718;2022-12-18T01:07:59;-1.50;99.90
23405;DHT22;11875;49.356;2.718;2022-12-18T01:10:25;-1.50;99.90
23405;DHT22;11875;49.356;2.718;2022-12-18T01:12:51;-1.60;99.90
23405;DHT22;11875;49.356;2.718;2022-12-18T01:15:18;-1.60;99.90
23405;DHT22;11875;49.356;2.718;2022-12-18T01:17:44;-1.60;99.90
23405;DHT22;11875;49.356;2.718;2022-12-18T01:20:11;-1.60;99.90
23405;DHT22;11875;49.356;2.718;2022-12-18T01:22:37;-1.60;99.90
23405;DHT22;11875;49.356;2.718;2022-12-18T01:25:04;-1.40;99.90
23405;DHT22;11875;49.356;2.718;2022-12-18T01:27:30;-1.40;99.90
23405;DHT22;11875;49.356;2.718;2022-12-18T01:29:56;-1.30;99.90
23405;DHT22;11875;49.356;2.718;2022-12-18T01:32:22;-1.40;99.90
23405;DHT22;11875;49.356;2.718;2022-12-18T01:34:48;-1.50;99.90
23405;DHT22;11875;49.356;2.718;2022-12-18T01:37:13;-1.60;99.90
23405;DHT22;11875;49.356;2.718;2022-12-18T01:39:39;-1.60;99.90
23405;DHT22;11875;49.356;2.718;2022-12-18T01:42:11;-1.60;99.90
23405;DHT22;11875;49.356;2.718;2022-12-18T01:45:29;-1.70;99.90
23405;DHT22;11875;49.356;2.718;2022-12-18T01:48:03;-1.80;99.90
23405;DHT22;11875;49.356;2.718;2022-12-18T01:50:40;-1.80;99.90
23405;DHT22;11875;49.356;2.718;2022-12-18T01:53:17;-1.70;99.90
23405;DHT22;11875;49.356;2.718;2022-12-18T01:55:48;-1.60;99.90
23405;DHT22;11875;49.356;2.718;2022-12-18T01:58:15;-1.60;99.90
23405;DHT22;11875;49.356;2.718;2022-12-18T02:00:41;-1.60;99.90
23405;DHT22;11875;49.356;2.718;2022-12-18T02:03:07;-1.70;99.90
23405;DHT22;11875;49.356;2.718;2022-12-18T02:08:25;-1.80;99.90
23405;DHT22;11875;49.356;2.718;2022-12-18T02:16:23;-1.90;99.90
23405;DHT22;11875;49.356;2.718;2022-12-18T02:18:57;-1.90;99.90
23405;DHT22;11875;49.356;2.718;2022-12-18T02:21:50;-1.80;99.90
23405;DHT22;11875;49.356;2.718;2022-12-18T02:27:10;-1.90;99.90
23405;DHT22;11875;49.356;2.718;2022-12-18T02:29:41;-1.90;99.90
23405;DHT22;11875;49.356;2.718;2022-12-18T02:32:14;-1.90;99.90
23405;DHT22;11875;49.356;2.718;2022-12-18T02:34:43;-2.00;99.90
23405;DHT22;11875;49.356;2.718;2022-12-18T02:37:13;-2.00;99.90
23405;DHT22;11875;49.356;2.718;2022-12-18T02:39:42;-1.90;99.90
23405;DHT22;11875;49.356;2.718;2022-12-18T02:42:09;-1.90;99.90
23405;DHT22;11875;49.356;2.718;2022-12-18T02:44:47;-2.00;99.90
23405;DHT22;11875;49.356;2.718;2022-12-18T02:47:14;-2.00;99.90
23405;DHT22;11875;49.356;2.718;2022-12-18T02:52:33;-2.10;99.90
23405;DHT22;11875;49.356;2.718;2022-12-18T02:57:58;-2.30;99.90
23405;DHT22;11875;49.356;2.718;2022-12-18T03:01:19;-2.30;99.90
23405;DHT22;11875;49.356;2.718;2022-12-18T03:03:29;-2.30;99.90
23405;DHT22;11875;49.356;2.718;2022-12-18T03:06:08;-2.30;99.90
23405;DHT22;11875;49.356;2.718;2022-12-18T03:08:49;-2.20;99.90
23405;DHT22;11875;49.356;2.718;2022-12-18T03:11:16;-2.20;99.90
23405;DHT22;11875;49.356;2.718;2022-12-18T03:14:04;-2.30;99.90
23405;DHT22;11875;49.356;2.718;2022-12-18T03:16:31;-2.40;99.90
23405;DHT22;11875;49.356;2.718;2022-12-18T03:19:03;-2.30;99.90
23405;DHT22;11875;49.356;2.718;2022-12-18T03:21:51;-2.20;99.90
23405;DHT22;11875;49.356;2.718;2022-12-18T03:24:18;-2.20;99.90
23405;DHT22;11875;49.356;2.718;2022-12-18T03:26:49;-2.30;99.90
23405;DHT22;11875;49.356;2.718;2022-12-18T03:29:32;-2.30;99.90
23405;DHT22;11875;49.356;2.718;2022-12-18T03:32:07;-2.40;99.90
23405;DHT22;11875;49.356;2.718;2022-12-18T03:34:37;-2.40;99.90
23405;DHT22;11875;49.356;2.718;2022-12-18T03:37:05;-2.50;99.90
23405;DHT22;11875;49.356;2.718;2022-12-18T03:39:32;-2.50;99.90
23405;DHT22;11875;49.356;2.718;2022-12-18T03:47:27;-2.40;99.90
23405;DHT22;11875;49.356;2.718;2022-12-18T03:50:18;-2.40;99.90
23405;DHT22;11875;49.356;2.718;2022-12-18T03:52:57;-2.30;99.90
23405;DHT22;11875;49.356;2.718;2022-12-18T03:55:25;-2.30;99.90
23405;DHT22;11875;49.356;2.718;2022-12-18T03:57:53;-2.40;99.90
23405;DHT22;11875;49.356;2.718;2022-12-18T04:00:19;-2.30;99.90
23405;DHT22;11875;49.356;2.718;2022-12-18T04:02:53;-2.30;99.90
23405;DHT22;11875;49.356;2.718;2022-12-18T04:05:20;-2.40;99.90
23405;DHT22;11875;49.356;2.718;2022-12-18T04:07:48;-2.40;99.90
23405;DHT22;11875;49.356;2.718;2022-12-18T04:10:16;-2.40;99.90
23405;DHT22;11875;49.356;2.718;2022-12-18T04:12:42;-2.40;99.90
23405;DHT22;11875;49.356;2.718;2022-12-18T04:15:09;-2.40;99.90
23405;DHT22;11875;49.356;2.718;2022-12-18T04:17:35;-2.40;99.90
23405;DHT22;11875;49.356;2.718;2022-12-18T04:20:00;-2.50;99.90
23405;DHT22;11875;49.356;2.718;2022-12-18T04:22:26;-2.50;99.90
23405;DHT22;11875;49.356;2.718;2022-12-18T04:24:52;-2.50;99.90
23405;DHT22;11875;49.356;2.718;2022-12-18T04:27:18;-2.50;99.90
23405;DHT22;11875;49.356;2.718;2022-12-18T04:29:44;-2.40;99.90
23405;DHT22;11875;49.356;2.718;2022-12-18T04:32:10;-2.50;99.90
23405;DHT22;11875;49.356;2.718;2022-12-18T04:34:35;-2.60;99.90
23405;DHT22;11875;49.356;2.718;2022-12-18T04:37:01;-2.90;99.90
23405;DHT22;11875;49.356;2.718;2022-12-18T04:39:27;-3.10;99.90
23405;DHT22;11875;49.356;2.718;2022-12-18T04:41:52;-3.20;99.90
23405;DHT22;11875;49.356;2.718;2022-12-18T04:44:18;-3.20;99.90
23405;DHT22;11875;49.356;2.718;2022-12-18T04:46:44;-3.00;99.90
23405;DHT22;11875;49.356;2.718;2022-12-18T04:49:10;-3.00;99.90
23405;DHT22;11875;49.356;2.718;2022-12-18T04:51:38;-3.10;99.90
23405;DHT22;11875;49.356;2.718;2022-12-18T04:54:04;-3.30;99.90
23405;DHT22;11875;49.356;2.718;2022-12-18T04:56:31;-3.50;99.90
23405;DHT22;11875;49.356;2.718;2022-12-18T04:58:57;-3.40;99.90
23405;DHT22;11875;49.356;2.718;2022-12-18T05:01:23;-3.20;99.90
23405;DHT22;11875;49.356;2.718;2022-12-18T05:03:48;-2.90;99.90
23405;DHT22;11875;49.356;2.718;2022-12-18T05:06:14;-2.70;99.90
23405;DHT22;11875;49.356;2.718;2022-12-18T05:08:40;-2.70;99.90
23405;DHT22;11875;49.356;2.718;2022-12-18T05:11:11;-2.60;99.90
23405;DHT22;11875;49.356;2.718;2022-12-18T05:13:38;-2.50;99.90
23405;DHT22;11875;49.356;2.718;2022-12-18T05:16:04;-2.60;99.90
23405;DHT22;11875;49.356;2.718;2022-12-18T05:18:30;-2.60;99.90
23405;DHT22;11875;49.356;2.718;2022-12-18T05:20:57;-2.80;99.90
23405;DHT22;11875;49.356;2.718;2022-12-18T05:23:23;-2.80;99.90
23405;DHT22;11875;49.356;2.718;2022-12-18T05:26:00;-2.90;99.90
23405;DHT22;11875;49.356;2.718;2022-12-18T05:28:28;-2.90;99.90
23405;DHT22;11875;49.356;2.718;2022-12-18T05:30:57;-2.80;99.90
23405;DHT22;11875;49.356;2.718;2022-12-18T05:33:25;-2.80;99.90
23405;DHT22;11875;49.356;2.718;2022-12-18T05:35:56;-2.80;99.90
23405;DHT22;11875;49.356;2.718;2022-12-18T05:38:24;-2.80;99.90
23405;DHT22;11875;49.356;2.718;2022-12-18T05:40:51;-2.90;99.90
23405;DHT22;11875;49.356;2.718;2022-12-18T05:43:18;-2.90;99.90
23405;DHT22;11875;49.356;2.718;2022-12-18T05:45:45;-3.00;99.90
23405;DHT22;11875;49.356;2.718;2022-12-18T05:48:14;-3.00;99.90
23405;DHT22;11875;49.356;2.718;2022-12-18T05:50:41;-2.90;99.90
23405;DHT22;11875;49.356;2.718;2022-12-18T05:53:08;-2.80;99.90
23405;DHT22;11875;49.356;2.718;2022-12-18T05:55:38;-2.80;99.90
23405;DHT22;11875;49.356;2.718;2022-12-18T05:58:05;-2.70;99.90
23405;DHT22;11875;49.356;2.718;2022-12-18T06:00:33;-2.80;99.90
23405;DHT22;11875;49.356;2.718;2022-12-18T06:03:00;-2.80;99.90
23405;DHT22;11875;49.356;2.718;2022-12-18T06:05:26;-2.80;99.90
23405;DHT22;11875;49.356;2.718;2022-12-18T06:07:52;-2.80;99.90
23405;DHT22;11875;49.356;2.718;2022-12-18T06:10:18;-2.70;99.90
23405;DHT22;11875;49.356;2.718;2022-12-18T06:12:44;-2.50;99.90
23405;DHT22;11875;49.356;2.718;2022-12-18T06:15:09;-2.50;99.90
23405;DHT22;11875;49.356;2.718;2022-12-18T06:17:36;-2.50;99.90
23405;DHT22;11875;49.356;2.718;2022-12-18T06:20:03;-2.50;99.90
23405;DHT22;11875;49.356;2.718;2022-12-18T06:22:31;-2.50;99.90
23405;DHT22;11875;49.356;2.718;2022-12-18T06:24:57;-2.60;99.90
23405;DHT22;11875;49.356;2.718;2022-12-18T06:27:25;-2.60;99.90
23405;DHT22;11875;49.356;2.718;2022-12-18T06:29:51;-2.60;99.90
23405;DHT22;11875;49.356;2.718;2022-12-18T06:32:17;-2.60;99.90
23405;DHT22;11875;49.356;2.718;2022-12-18T06:34:43;-2.60;99.90
23405;DHT22;11875;49.356;2.718;2022-12-18T06:37:08;-2.60;99.90
23405;DHT22;11875;49.356;2.718;2022-12-18T06:39:34;-2.70;99.90
23405;DHT22;11875;49.356;2.718;2022-12-18T06:42:00;-2.80;99.90
23405;DHT22;11875;49.356;2.718;2022-12-18T06:44:26;-2.90;99.90
23405;DHT22;11875;49.356;2.718;2022-12-18T06:46:52;-3.00;99.90
23405;DHT22;11875;49.356;2.718;2022-12-18T06:49:17;-3.10;99.90
23405;DHT22;11875;49.356;2.718;2022-12-18T06:51:43;-3.00;99.90
23405;DHT22;11875;49.356;2.718;2022-12-18T06:54:09;-3.00;99.90
23405;DHT22;11875;49.356;2.718;2022-12-18T06:56:35;-3.00;99.90
23405;DHT22;11875;49.356;2.718;2022-12-18T06:59:00;-3.10;99.90
23405;DHT22;11875;49.356;2.718;2022-12-18T07:01:26;-3.10;99.90
23405;DHT22;11875;49.356;2.718;2022-12-18T07:03:56;-3.10;99.90
23405;DHT22;11875;49.356;2.718;2022-12-18T07:06:24;-3.10;99.90
23405;DHT22;11875;49.356;2.718;2022-12-18T07:08:51;-3.10;99.90
23405;DHT22;11875;49.356;2.718;2022-12-18T07:11:18;-3.20;99.90
23405;DHT22;11875;49.356;2.718;2022-12-18T07:13:44;-3.30;99.90
23405;DHT22;11875;49.356;2.718;2022-12-18T07:16:18;-3.40;99.90
23405;DHT22;11875;49.356;2.718;2022-12-18T07:18:44;-3.60;99.90
23405;DHT22;11875;49.356;2.718;2022-12-18T07:21:12;-3.60;99.90
23405;DHT22;11875;49.356;2.718;2022-12-18T07:23:39;-3.70;99.90
23405;DHT22;11875;49.356;2.718;2022-12-18T07:26:10;-3.60;99.90
23405;DHT22;11875;49.356;2.718;2022-12-18T07:28:36;-3.50;99.90
23405;DHT22;11875;49.356;2.718;2022-12-18T07:31:12;-3.20;99.90
23405;DHT22;11875;49.356;2.718;2022-12-18T07:33:38;-3.10;99.90
23405;DHT22;11875;49.356;2.718;2022-12-18T07:36:05;-3.00;99.90
23405;DHT22;11875;49.356;2.718;2022-12-18T07:38:32;-3.10;99.90
23405;DHT22;11875;49.356;2.718;2022-12-18T07:41:25;-3.10;99.90
23405;DHT22;11875;49.356;2.718;2022-12-18T07:43:50;-3.10;99.90
23405;DHT22;11875;49.356;2.718;2022-12-18T07:46:17;-2.90;99.90
23405;DHT22;11875;49.356;2.718;2022-12-18T07:48:43;-2.80;99.90
23405;DHT22;11875;49.356;2.718;2022-12-18T07:51:13;-2.70;99.90
23405;DHT22;11875;49.356;2.718;2022-12-18T07:53:39;-2.70;99.90
23405;DHT22;11875;49.356;2.718;2022-12-18T07:56:11;-2.90;99.90
23405;DHT22;11875;49.356;2.718;2022-12-18T07:58:37;-3.00;99.90
23405;DHT22;11875;49.356;2.718;2022-12-18T08:01:08;-3.20;99.90
23405;DHT22;11875;49.356;2.718;2022-12-18T08:03:35;-3.10;99.90
23405;DHT22;11875;49.356;2.718;2022-12-18T08:06:03;-3.00;99.90
23405;DHT22;11875;49.356;2.718;2022-12-18T08:08:30;-3.00;99.90
23405;DHT22;11875;49.356;2.718;2022-12-18T08:10:56;-3.00;99.90
23405;DHT22;11875;49.356;2.718;2022-12-18T08:13:23;-2.90;99.90
23405;DHT22;11875;49.356;2.718;2022-12-18T08:16:00;-2.90;99.90
23405;DHT22;11875;49.356;2.718;2022-12-18T08:18:27;-2.80;99.90
23405;DHT22;11875;49.356;2.718;2022-12-18T08:20:52;-2.60;99.90
23405;DHT22;11875;49.356;2.718;2022-12-18T08:23:19;-2.60;99.90
23405;DHT22;11875;49.356;2.718;2022-12-18T08:25:45;-2.50;99.90
23405;DHT22;11875;49.356;2.718;2022-12-18T08:28:11;-2.50;99.90
23405;DHT22;11875;49.356;2.718;2022-12-18T08:30:36;-2.50;99.90
23405;DHT22;11875;49.356;2.718;2022-12-18T08:33:03;-2.50;99.90
23405;DHT22;11875;49.356;2.718;2022-12-18T08:35:29;-2.40;99.90
23405;DHT22;11875;49.356;2.718;2022-12-18T08:37:55;-2.30;99.90
23405;DHT22;11875;49.356;2.718;2022-12-18T08:40:20;-2.40;99.90
23405;DHT22;11875;49.356;2.718;2022-12-18T08:42:46;-2.60;99.90
23405;DHT22;11875;49.356;2.718;2022-12-18T08:45:34;-2.80;99.90
23405;DHT22;11875;49.356;2.718;2022-12-18T08:47:59;-3.30;99.90
23405;DHT22;11875;49.356;2.718;2022-12-18T08:50:25;-3.40;99.90
23405;DHT22;11875;49.356;2.718;2022-12-18T08:52:51;-3.30;99.90
23405;DHT22;11875;49.356;2.718;2022-12-18T08:55:17;-3.30;99.90
23405;DHT22;11875;49.356;2.718;2022-12-18T08:57:42;-3.40;99.90
23405;DHT22;11875;49.356;2.718;2022-12-18T09:00:08;-3.50;99.90
23405;DHT22;11875;49.356;2.718;2022-12-18T09:02:34;-3.50;99.90
23405;DHT22;11875;49.356;2.718;2022-12-18T09:05:00;-3.60;99.90
23405;DHT22;11875;49.356;2.718;2022-12-18T09:07:26;-3.60;99.90
23405;DHT22;11875;49.356;2.718;2022-12-18T09:09:51;-3.50;99.90
23405;DHT22;11875;49.356;2.718;2022-12-18T09:12:17;-3.50;99.90
23405;DHT22;11875;49.356;2.718;2022-12-18T09:14:43;-3.50;99.90
23405;DHT22;11875;49.356;2.718;2022-12-18T09:17:09;-3.50;99.90
23405;DHT22;11875;49.356;2.718;2022-12-18T09:19:34;-3.50;99.90
23405;DHT22;11875;49.356;2.718;2022-12-18T09:22:00;-3.50;99.90
23405;DHT22;11875;49.356;2.718;2022-12-18T09:24:26;-3.50;99.90
23405;DHT22;11875;49.356;2.718;2022-12-18T09:26:55;-3.60;99.90
23405;DHT22;11875;49.356;2.718;2022-12-18T09:29:21;-3.50;99.90
23405;DHT22;11875;49.356;2.718;2022-12-18T09:31:46;-3.50;99.90
23405;DHT22;11875;49.356;2.718;2022-12-18T09:34:12;-3.40;99.90
23405;DHT22;11875;49.356;2.718;2022-12-18T09:36:38;-3.30;99.90
23405;DHT22;11875;49.356;2.718;2022-12-18T09:39:04;-3.30;99.90
23405;DHT22;11875;49.356;2.718;2022-12-18T09:41:43;-3.30;99.90
23405;DHT22;11875;49.356;2.718;2022-12-18T09:49:20;-3.00;99.90
23405;DHT22;11875;49.356;2.718;2022-12-18T09:51:56;-2.90;99.90
23405;DHT22;11875;49.356;2.718;2022-12-18T09:54:35;-3.00;99.90
23405;DHT22;11875;49.356;2.718;2022-12-18T09:57:02;-3.00;99.90
23405;DHT22;11875;49.356;2.718;2022-12-18T09:59:34;-3.00;99.90
23405;DHT22;11875;49.356;2.718;2022-12-18T10:02:17;-2.90;99.90
23405;DHT22;11875;49.356;2.718;2022-12-18T10:04:43;-2.90;99.90
23405;DHT22;11875;49.356;2.718;2022-12-18T10:07:46;-2.90;99.90
23405;DHT22;11875;49.356;2.718;2022-12-18T10:16:15;-2.90;99.90
23405;DHT22;11875;49.356;2.718;2022-12-18T10:26:27;-2.80;99.90
23405;DHT22;11875;49.356;2.718;2022-12-18T10:28:53;-2.80;99.90
23405;DHT22;11875;49.356;2.718;2022-12-18T10:31:23;-2.80;99.90
23405;DHT22;11875;49.356;2.718;2022-12-18T10:33:49;-2.70;99.90
23405;DHT22;11875;49.356;2.718;2022-12-18T10:36:15;-2.80;99.90
23405;DHT22;11875;49.356;2.718;2022-12-18T10:38:41;-2.70;99.90
23405;DHT22;11875;49.356;2.718;2022-12-18T10:43:38;-2.60;99.90
23405;DHT22;11875;49.356;2.718;2022-12-18T10:48:56;-2.50;99.90
23405;DHT22;11875;49.356;2.718;2022-12-18T10:54:04;-2.30;99.90
23405;DHT22;11875;49.356;2.718;2022-12-18T10:56:33;-2.40;99.90
23405;DHT22;11875;49.356;2.718;2022-12-18T10:59:06;-2.30;99.90
23405;DHT22;11875;49.356;2.718;2022-12-18T11:01:55;-2.10;99.90
23405;DHT22;11875;49.356;2.718;2022-12-18T11:04:26;-2.10;99.90
23405;DHT22;11875;49.356;2.718;2022-12-18T11:07:04;-2.10;99.90
23405;DHT22;11875;49.356;2.718;2022-12-18T11:09:35;-2.00;99.90
23405;DHT22;11875;49.356;2.718;2022-12-18T11:12:04;-1.90;99.90
23405;DHT22;11875;49.356;2.718;2022-12-18T11:17:28;-1.70;99.90
23405;DHT22;11875;49.356;2.718;2022-12-18T11:20:00;-1.70;99.90
23405;DHT22;11875;49.356;2.718;2022-12-18T11:22:31;-1.60;99.90
23405;DHT22;11875;49.356;2.718;2022-12-18T11:25:07;-1.60;99.90
23405;DHT22;11875;49.356;2.718;2022-12-18T11:27:49;-1.60;99.90
23405;DHT22;11875;49.356;2.718;2022-12-18T11:30:26;-1.50;99.90
23405;DHT22;11875;49.356;2.718;2022-12-18T11:35:49;-1.30;99.90
23405;DHT22;11875;49.356;2.718;2022-12-18T11:38:37;-1.30;99.90
23405;DHT22;11875;49.356;2.718;2022-12-18T11:43:41;-1.20;99.90
23405;DHT22;11875;49.356;2.718;2022-12-18T11:46:13;-1.20;99.90
23405;DHT22;11875;49.356;2.718;2022-12-18T11:48:49;-1.20;99.90
23405;DHT22;11875;49.356;2.718;2022-12-18T11:51:52;-1.10;99.90
23405;DHT22;11875;49.356;2.718;2022-12-18T11:54:16;-1.10;99.90
23405;DHT22;11875;49.356;2.718;2022-12-18T11:56:49;-1.00;99.90
23405;DHT22;11875;49.356;2.718;2022-12-18T12:01:59;-0.90;99.90
23405;DHT22;11875;49.356;2.718;2022-12-18T12:04:56;-0.80;99.90
23405;DHT22;11875;49.356;2.718;2022-12-18T12:10:47;-0.60;99.90
23405;DHT22;11875;49.356;2.718;2022-12-18T12:21:35;-0.50;99.90
23405;DHT22;11875;49.356;2.718;2022-12-18T12:27:15;-0.30;99.90
23405;DHT22;11875;49.356;2.718;2022-12-18T12:36:57;-0.30;99.90
23405;DHT22;11875;49.356;2.718;2022-12-18T12:38:53;-0.30;99.90
23405;DHT22;11875;49.356;2.718;2022-12-18T12:41:23;0.60;99.90
23405;DHT22;11875;49.356;2.718;2022-12-18T12:44:15;-0.10;99.90
23405;DHT22;11875;49.356;2.718;2022-12-18T12:46:42;0.10;99.90
23405;DHT22;11875;49.356;2.718;2022-12-18T12:49:32;0.20;99.90
23405;DHT22;11875;49.356;2.718;2022-12-18T12:52:06;0.10;99.90
23405;DHT22;11875;49.356;2.718;2022-12-18T12:54:34;0.10;99.90
23405;DHT22;11875;49.356;2.718;2022-12-18T12:57:08;0.20;99.90
23405;DHT22;11875;49.356;2.718;2022-12-18T13:04:56;0.30;99.90
23405;DHT22;11875;49.356;2.718;2022-12-18T13:07:50;0.20;99.90
23405;DHT22;11875;49.356;2.718;2022-12-18T13:15:24;0.40;99.90
23405;DHT22;11875;49.356;2.718;2022-12-18T13:20:36;0.30;99.90
23405;DHT22;11875;49.356;2.718;2022-12-18T13:25:48;0.50;99.90
23405;DHT22;11875;49.356;2.718;2022-12-18T13:29:01;0.50;99.90
23405;DHT22;11875;49.356;2.718;2022-12-18T13:31:02;0.50;99.90
23405;DHT22;11875;49.356;2.718;2022-12-18T13:36:04;0.40;99.90
23405;DHT22;11875;49.356;2.718;2022-12-18T13:38:35;0.50;99.90
23405;DHT22;11875;49.356;2.718;2022-12-18T13:43:29;0.60;99.90
23405;DHT22;11875;49.356;2.718;2022-12-18T13:48:26;0.60;99.90
23405;DHT22;11875;49.356;2.718;2022-12-18T13:50:59;0.70;99.90
23405;DHT22;11875;49.356;2.718;2022-12-18T13:53:57;0.50;99.90
23405;DHT22;11875;49.356;2.718;2022-12-18T13:56:26;0.60;99.90
23405;DHT22;11875;49.356;2.718;2022-12-18T13:59:18;0.50;99.90
23405;DHT22;11875;49.356;2.718;2022-12-18T14:06:54;0.50;99.90
23405;DHT22;11875;49.356;2.718;2022-12-18T14:09:25;0.50;99.90
23405;DHT22;11875;49.356;2.718;2022-12-18T14:11:52;0.60;99.90
23405;DHT22;11875;49.356;2.718;2022-12-18T14:14:44;0.60;99.90
23405;DHT22;11875;49.356;2.718;2022-12-18T14:17:11;0.50;99.90
23405;DHT22;11875;49.356;2.718;2022-12-18T14:19:48;0.60;99.90
23405;DHT22;11875;49.356;2.718;2022-12-18T14:22:23;0.60;99.90
23405;DHT22;11875;49.356;2.718;2022-12-18T14:25:27;0.70;99.90
23405;DHT22;11875;49.356;2.718;2022-12-18T14:30:42;0.80;99.90
23405;DHT22;11875;49.356;2.718;2022-12-18T14:35:58;0.90;99.90
23405;DHT22;11875;49.356;2.718;2022-12-18T14:38:34;0.90;99.90
23405;DHT22;11875;49.356;2.718;2022-12-18T14:41:06;0.90;99.90
23405;DHT22;11875;49.356;2.718;2022-12-18T14:43:36;1.10;99.90
23405;DHT22;11875;49.356;2.718;2022-12-18T14:46:04;1.10;99.90
23405;DHT22;11875;49.356;2.718;2022-12-18T14:51:03;1.20;99.90
23405;DHT22;11875;49.356;2.718;2022-12-18T14:53:40;1.20;99.90
23405;DHT22;11875;49.356;2.718;2022-12-18T14:56:25;1.40;99.90
23405;DHT22;11875;49.356;2.718;2022-12-18T14:58:55;1.50;99.90
23405;DHT22;11875;49.356;2.718;2022-12-18T15:09:32;1.50;99.90
23405;DHT22;11875;49.356;2.718;2022-12-18T15:11:59;1.50;99.90
23405;DHT22;11875;49.356;2.718;2022-12-18T15:14:33;1.40;99.90
23405;DHT22;11875;49.356;2.718;2022-12-18T15:17:02;1.50;99.90
23405;DHT22;11875;49.356;2.718;2022-12-18T15:19:40;1.60;99.90
23405;DHT22;11875;49.356;2.718;2022-12-18T15:22:30;1.80;99.90
23405;DHT22;11875;49.356;2.718;2022-12-18T15:24:59;1.70;99.90
23405;DHT22;11875;49.356;2.718;2022-12-18T15:27:29;1.60;99.90
23405;DHT22;11875;49.356;2.718;2022-12-18T15:32:36;1.90;99.90
23405;DHT22;11875;49.356;2.718;2022-12-18T15:37:34;1.90;99.90
23405;DHT22;11875;49.356;2.718;2022-12-18T15:40:00;1.60;99.90
23405;DHT22;11875;49.356;2.718;2022-12-18T15:42:27;1.50;99.90
23405;DHT22;11875;49.356;2.718;2022-12-18T15:45:13;1.40;99.90
23405;DHT22;11875;49.356;2.718;2022-12-18T15:47:39;1.30;99.90
23405;DHT22;11875;49.356;2.718;2022-12-18T15:50:05;1.30;99.90
23405;DHT22;11875;49.356;2.718;2022-12-18T15:52:42;1.20;99.90
23405;DHT22;11875;49.356;2.718;2022-12-18T15:55:19;1.20;99.90
23405;DHT22;11875;49.356;2.718;2022-12-18T15:58:05;1.20;99.90
23405;DHT22;11875;49.356;2.718;2022-12-18T16:00:33;1.30;99.90
23405;DHT22;11875;49.356;2.718;2022-12-18T16:02:59;1.40;99.90
23405;DHT22;11875;49.356;2.718;2022-12-18T16:05:26;1.50;99.90
23405;DHT22;11875;49.356;2.718;2022-12-18T16:07:52;1.40;99.90
23405;DHT22;11875;49.356;2.718;2022-12-18T16:10:18;1.40;99.90
23405;DHT22;11875;49.356;2.718;2022-12-18T16:12:44;1.40;99.90
23405;DHT22;11875;49.356;2.718;2022-12-18T16:15:13;1.50;99.90
23405;DHT22;11875;49.356;2.718;2022-12-18T16:17:40;1.50;99.90
23405;DHT22;11875;49.356;2.718;2022-12-18T16:20:17;1.50;99.90
23405;DHT22;11875;49.356;2.718;2022-12-18T16:22:44;1.70;99.90
23405;DHT22;11875;49.356;2.718;2022-12-18T16:25:31;1.80;99.90
23405;DHT22;11875;49.356;2.718;2022-12-18T16:27:57;1.80;99.90
23405;DHT22;11875;49.356;2.718;2022-12-18T16:30:28;1.70;99.90
23405;DHT22;11875;49.356;2.718;2022-12-18T16:32:59;1.80;99.90
23405;DHT22;11875;49.356;2.718;2022-12-18T16:35:26;1.80;99.90
23405;DHT22;11875;49.356;2.718;2022-12-18T16:37:52;1.90;99.90
23405;DHT22;11875;49.356;2.718;2022-12-18T16:40:18;1.90;99.90
23405;DHT22;11875;49.356;2.718;2022-12-18T16:42:45;1.90;99.90
23405;DHT22;11875;49.356;2.718;2022-12-18T16:45:13;2.00;99.90
23405;DHT22;11875;49.356;2.718;2022-12-18T16:47:40;2.20;99.90
23405;DHT22;11875;49.356;2.718;2022-12-18T16:50:06;2.30;99.90
23405;DHT22;11875;49.356;2.718;2022-12-18T16:52:33;2.40;99.90
23405;DHT22;11875;49.356;2.718;2022-12-18T16:54:59;2.60;99.90
23405;DHT22;11875;49.356;2.718;2022-12-18T16:57:24;2.80;99.90
23405;DHT22;11875;49.356;2.718;2022-12-18T16:59:50;3.00;99.90
23405;DHT22;11875;49.356;2.718;2022-12-18T17:02:21;3.00;99.90
23405;DHT22;11875;49.356;2.718;2022-12-18T17:04:47;3.20;99.90
23405;DHT22;11875;49.356;2.718;2022-12-18T17:07:13;3.40;99.90
23405;DHT22;11875;49.356;2.718;2022-12-18T17:09:39;3.40;99.90
23405;DHT22;11875;49.356;2.718;2022-12-18T17:12:06;3.30;99.90
23405;DHT22;11875;49.356;2.718;2022-12-18T17:14:32;3.30;99.90
23405;DHT22;11875;49.356;2.718;2022-12-18T17:16:58;3.20;99.90
23405;DHT22;11875;49.356;2.718;2022-12-18T17:19:25;3.20;99.90
23405;DHT22;11875;49.356;2.718;2022-12-18T17:21:51;3.00;99.90
23405;DHT22;11875;49.356;2.718;2022-12-18T17:24:18;2.70;99.90
23405;DHT22;11875;49.356;2.718;2022-12-18T17:26:44;2.70;99.90
23405;DHT22;11875;49.356;2.718;2022-12-18T17:29:18;3.20;99.90
23405;DHT22;11875;49.356;2.718;2022-12-18T17:31:45;3.80;99.90
23405;DHT22;11875;49.356;2.718;2022-12-18T17:34:12;3.50;99.90
23405;DHT22;11875;49.356;2.718;2022-12-18T17:36:38;2.50;99.90
23405;DHT22;11875;49.356;2.718;2022-12-18T17:39:04;2.50;99.90
23405;DHT22;11875;49.356;2.718;2022-12-18T17:41:30;2.50;99.90
23405;DHT22;11875;49.356;2.718;2022-12-18T17:43:58;2.60;99.90
23405;DHT22;11875;49.356;2.718;2022-12-18T17:46:25;2.50;99.90
23405;DHT22;11875;49.356;2.718;2022-12-18T17:48:54;2.70;99.90
23405;DHT22;11875;49.356;2.718;2022-12-18T17:51:20;2.70;99.90
23405;DHT22;11875;49.356;2.718;2022-12-18T17:53:46;2.50;99.90
23405;DHT22;11875;49.356;2.718;2022-12-18T17:56:14;2.50;99.90
23405;DHT22;11875;49.356;2.718;2022-12-18T17:58:40;2.50;99.90
23405;DHT22;11875;49.356;2.718;2022-12-18T18:01:06;2.50;99.90
23405;DHT22;11875;49.356;2.718;2022-12-18T18:03:33;2.60;99.90